Time;durP1;ratioP1;P1;durP2;ratioP2;P2;SDS_P1;SDS_P2;PMS_P1;PMS_P2;Temp;Humidity;BMP_temperature;BMP_pressure;BME280_temperature;BME280_humidity;BME280_pressure;Samples;Min_cycle;Max_cycle;Signal;HPM_P1;HPM_P2
2023/04/29 00:01:19;;;;;;;5.82;3.67;;;;;;;;;;5031266;28;20406;-81
2023/04/29 00:03:46;;;;;;;5.68;3.70;;;;;;;;;;4987326;28;20037;-80
2023/04/29 00:06:13;;;;;;;4.47;3.97;;;;;;;;;;4995155;28;20069;-85
2023/04/29 00:08:41;;;;;;;6.53;3.20;;;;;;;;;;5010854;28;20050;-85
2023/04/29 00:11:07;;;;;;;5.25;3.58;;;;;;;;;;5013636;28;20052;-82
2023/04/29 00:13:34;;;;;;;4.15;3.75;;;;;;;;;;4997950;28;20055;-82
2023/04/29 00:16:01;;;;;;;4.25;3.85;;;;;;;;;;5014035;28;20059;-83
2023/04/29 00:18:28;;;;;;;4.57;3.80;;;;;;;;;;4997133;28;20107;-83
2023/04/29 00:20:55;;;;;;;4.10;3.70;;;;;;;;;;4980779;28;20046;-83
2023/04/29 00:23:21;;;;;;;4.15;3.72;;;;;;;;;;4997030;28;20447;-83
2023/04/29 00:25:49;;;;;;;4.50;3.35;;;;;;;;;;4981139;28;20064;-83
2023/04/29 00:28:16;;;;;;;5.15;3.25;;;;;;;;;;4997214;28;20068;-83
2023/04/29 00:30:42;;;;;;;5.95;3.80;;;;;;;;;;4981151;28;20056;-82
2023/04/29 00:33:09;;;;;;;4.88;3.55;;;;;;;;;;4997160;28;20065;-82
2023/04/29 00:35:36;;;;;;;4.28;3.50;;;;;;;;;;5013269;28;20143;-82
2023/04/29 00:38:03;;;;;;;3.92;3.58;;;;;;;;;;4997334;28;20049;-84
2023/04/29 00:40:29;;;;;;;5.57;3.67;;;;;;;;;;4980829;28;20057;-84
2023/04/29 00:42:56;;;;;;;5.82;3.38;;;;;;;;;;4981041;28;20061;-83
2023/04/29 00:45:23;;;;;;;4.53;3.65;;;;;;;;;;4997252;28;20458;-82
2023/04/29 00:47:50;;;;;;;4.95;2.80;;;;;;;;;;4981563;28;20057;-82
2023/04/29 00:50:17;;;;;;;4.32;3.22;;;;;;;;;;4998062;28;20148;-83
2023/04/29 00:52:44;;;;;;;6.35;3.72;;;;;;;;;;4998795;28;20049;-83
2023/04/29 00:55:13;;;;;;;4.95;3.20;;;;;;;;;;4981887;28;20053;-83
2023/04/29 00:57:41;;;;;;;4.47;3.33;;;;;;;;;;4998754;28;20148;-83
2023/04/29 01:00:12;;;;;;;5.40;3.45;;;;;;;;;;4981824;28;20068;-83
2023/04/29 01:02:39;;;;;;;7.43;3.35;;;;;;;;;;5009702;28;20055;-82
2023/04/29 01:05:06;;;;;;;3.42;3.13;;;;;;;;;;5013657;28;20065;-83
2023/04/29 01:08:02;;;;;;;3.15;2.83;;;;;;;;;;4982508;28;20067;-83
2023/04/29 01:10:34;;;;;;;3.33;3.03;;;;;;;;;;5002907;28;20087;-83
2023/04/29 01:13:28;;;;;;;4.18;3.38;;;;;;;;;;4982799;28;20053;-83
2023/04/29 01:16:03;;;;;;;3.78;3.38;;;;;;;;;;5002150;28;20057;-82
2023/04/29 01:18:36;;;;;;;4.20;3.63;;;;;;;;;;4997698;28;20061;-83
2023/04/29 01:21:02;;;;;;;4.63;3.50;;;;;;;;;;4984873;28;20050;-83
2023/04/29 01:23:29;;;;;;;4.10;3.20;;;;;;;;;;5017546;28;20064;-83
2023/04/29 01:25:57;;;;;;;4.22;3.72;;;;;;;;;;5013013;28;20060;-81
2023/04/29 01:28:48;;;;;;;4.22;3.67;;;;;;;;;;4980094;28;20062;-81
2023/04/29 01:31:30;;;;;;;4.43;3.40;;;;;;;;;;5030396;28;20064;-81
2023/04/29 01:34:27;;;;;;;5.18;3.40;;;;;;;;;;4969651;28;20057;-81
2023/04/29 01:37:16;;;;;;;3.40;3.10;;;;;;;;;;5019315;28;20057;-80
2023/04/29 01:39:52;;;;;;;7.03;4.18;;;;;;;;;;5021015;28;20054;-80
2023/04/29 01:42:19;;;;;;;3.95;3.65;;;;;;;;;;5003999;28;20050;-80
2023/04/29 01:44:46;;;;;;;3.53;3.25;;;;;;;;;;5018384;28;20064;-80
2023/04/29 01:47:14;;;;;;;4.10;3.42;;;;;;;;;;4984975;28;20141;-80
2023/04/29 01:49:40;;;;;;;3.95;3.55;;;;;;;;;;4985316;28;20054;-81
2023/04/29 01:52:07;;;;;;;3.92;3.30;;;;;;;;;;5025198;28;20037;-80
2023/04/29 01:54:35;;;;;;;4.03;3.55;;;;;;;;;;4991351;28;20398;-81
2023/04/29 01:57:02;;;;;;;3.58;3.25;;;;;;;;;;5015118;28;20505;-80
2023/04/29 01:59:29;;;;;;;6.28;3.30;;;;;;;;;;5011523;28;20092;-81
2023/04/29 02:01:57;;;;;;;4.72;3.45;;;;;;;;;;5011930;28;20073;-81
2023/04/29 02:04:24;;;;;;;4.80;3.55;;;;;;;;;;4983587;28;20061;-81
2023/04/29 02:06:51;;;;;;;3.88;3.53;;;;;;;;;;5012289;28;20080;-82
2023/04/29 02:09:18;;;;;;;3.53;3.20;;;;;;;;;;5015620;28;20076;-82
2023/04/29 02:11:45;;;;;;;4.18;3.78;;;;;;;;;;4983645;28;20049;-81
2023/04/29 02:14:12;;;;;;;4.15;3.33;;;;;;;;;;4983889;28;20144;-82
2023/04/29 02:16:38;;;;;;;3.83;3.42;;;;;;;;;;5000145;28;20101;-82
2023/04/29 02:19:05;;;;;;;3.60;3.30;;;;;;;;;;4999968;28;20148;-81
2023/04/29 02:21:33;;;;;;;4.90;4.05;;;;;;;;;;5015923;28;20053;-82
2023/04/29 02:24:01;;;;;;;4.07;3.30;;;;;;;;;;5017103;28;20156;-81
2023/04/29 02:26:28;;;;;;;4.57;3.40;;;;;;;;;;5012994;28;20133;-81
2023/04/29 02:28:56;;;;;;;4.28;3.80;;;;;;;;;;5016504;28;20132;-82
2023/04/29 02:31:22;;;;;;;4.15;3.65;;;;;;;;;;5015792;28;20497;-82
2023/04/29 02:33:49;;;;;;;4.65;4.05;;;;;;;;;;4999833;28;20049;-81
2023/04/29 02:36:17;;;;;;;5.15;3.47;;;;;;;;;;4984402;28;20050;-81
2023/04/29 02:38:43;;;;;;;4.10;3.70;;;;;;;;;;5000397;28;20045;-81
2023/04/29 02:41:18;;;;;;;4.72;4.00;;;;;;;;;;4999891;28;20057;-81
2023/04/29 02:43:45;;;;;;;6.53;4.00;;;;;;;;;;4999950;28;20109;-82
2023/04/29 02:46:12;;;;;;;5.07;4.40;;;;;;;;;;5016688;28;20520;-81
2023/04/29 02:48:38;;;;;;;4.75;4.05;;;;;;;;;;5016112;28;20065;-82
2023/04/29 02:51:05;;;;;;;5.15;4.65;;;;;;;;;;4999543;28;20511;-82
2023/04/29 02:53:32;;;;;;;5.53;3.90;;;;;;;;;;5015945;28;20060;-81
2023/04/29 02:55:59;;;;;;;5.43;3.97;;;;;;;;;;5000398;28;20057;-82
2023/04/29 02:58:26;;;;;;;4.10;3.70;;;;;;;;;;5000202;28;20060;-82
2023/04/29 03:00:52;;;;;;;4.93;4.20;;;;;;;;;;4983852;28;20062;-81
2023/04/29 03:03:19;;;;;;;4.40;3.78;;;;;;;;;;4999953;28;20056;-82
2023/04/29 03:05:46;;;;;;;5.97;3.95;;;;;;;;;;4999901;28;20053;-82
2023/04/29 03:08:13;;;;;;;5.30;4.38;;;;;;;;;;4984103;28;20176;-81
2023/04/29 03:10:40;;;;;;;4.95;3.85;;;;;;;;;;5014672;28;20049;-82
2023/04/29 03:13:07;;;;;;;5.00;4.50;;;;;;;;;;4999160;28;20177;-83
2023/04/29 03:15:34;;;;;;;4.63;4.22;;;;;;;;;;4999498;28;20061;-83
2023/04/29 03:18:02;;;;;;;4.93;4.43;;;;;;;;;;4999372;28;20059;-83
2023/04/29 03:20:29;;;;;;;4.63;4.22;;;;;;;;;;4984445;28;20541;-84
2023/04/29 03:22:56;;;;;;;7.72;4.63;;;;;;;;;;5012337;28;20117;-83
2023/04/29 03:25:23;;;;;;;6.88;4.55;;;;;;;;;;4996213;28;20141;-81
2023/04/29 03:27:50;;;;;;;5.70;4.43;;;;;;;;;;5003046;28;20053;-81
2023/04/29 03:30:17;;;;;;;7.65;4.90;;;;;;;;;;4999071;28;20449;-82
2023/04/29 03:32:44;;;;;;;5.80;5.13;;;;;;;;;;5000320;28;20057;-82
2023/04/29 03:35:11;;;;;;;6.30;5.03;;;;;;;;;;4984399;28;20065;-81
2023/04/29 03:37:43;;;;;;;5.72;4.78;;;;;;;;;;4998919;28;20061;-82
2023/04/29 03:40:11;;;;;;;5.10;4.60;;;;;;;;;;4999834;28;20057;-81
2023/04/29 03:42:38;;;;;;;5.60;4.85;;;;;;;;;;5014360;28;20053;-81
2023/04/29 03:45:05;;;;;;;10.95;5.07;;;;;;;;;;5027956;28;20092;-82
2023/04/29 03:47:32;;;;;;;8.05;4.97;;;;;;;;;;5005857;28;20513;-81
2023/04/29 03:49:59;;;;;;;6.88;4.93;;;;;;;;;;5044947;28;20476;-82
2023/04/29 03:52:26;;;;;;;5.72;4.63;;;;;;;;;;4984697;28;20557;-84
2023/04/29 03:54:52;;;;;;;4.95;4.45;;;;;;;;;;4998499;28;20084;-84
2023/04/29 03:57:19;;;;;;;5.03;4.63;;;;;;;;;;4984630;28;20069;-83
2023/04/29 03:59:49;;;;;;;5.47;4.97;;;;;;;;;;4998788;28;20054;-83
2023/04/29 04:02:16;;;;;;;5.15;4.65;;;;;;;;;;5013589;28;20127;-83
2023/04/29 04:04:43;;;;;;;4.53;3.70;;;;;;;;;;5018106;28;20462;-83
2023/04/29 04:07:11;;;;;;;3.85;3.47;;;;;;;;;;5003094;28;20077;-81
2023/04/29 04:09:37;;;;;;;5.32;3.85;;;;;;;;;;5014551;28;20084;-76
2023/04/29 04:12:05;;;;;;;6.10;4.43;;;;;;;;;;5011950;28;20071;-76
2023/04/29 04:14:33;;;;;;;4.55;4.15;;;;;;;;;;4996295;28;20060;-77
2023/04/29 04:17:00;;;;;;;4.35;3.95;;;;;;;;;;5014883;28;20103;-80
2023/04/29 04:19:28;;;;;;;6.05;3.70;;;;;;;;;;4999414;28;20077;-81
2023/04/29 04:21:54;;;;;;;4.30;3.97;;;;;;;;;;4999566;28;20141;-80
2023/04/29 04:24:22;;;;;;;4.38;3.97;;;;;;;;;;5001828;28;20513;-81
2023/04/29 04:26:49;;;;;;;6.78;4.47;;;;;;;;;;4987360;28;20061;-81
2023/04/29 04:29:15;;;;;;;4.32;3.88;;;;;;;;;;5017710;28;20071;-80
2023/04/29 04:31:42;;;;;;;4.65;4.00;;;;;;;;;;5017627;28;20464;-80
2023/04/29 04:34:12;;;;;;;5.50;4.10;;;;;;;;;;5002600;28;20132;-81
2023/04/29 04:36:40;;;;;;;5.40;3.70;;;;;;;;;;4989481;28;20085;-80
2023/04/29 04:39:07;;;;;;;4.32;3.25;;;;;;;;;;4997172;28;20108;-80
2023/04/29 04:41:33;;;;;;;3.88;3.47;;;;;;;;;;5011633;28;20776;-80
2023/04/29 04:44:01;;;;;;;3.22;2.90;;;;;;;;;;4999442;28;20061;-80
2023/04/29 04:46:27;;;;;;;12.20;3.20;;;;;;;;;;4999955;28;20490;-80
2023/04/29 04:48:54;;;;;;;3.13;2.83;;;;;;;;;;5014096;28;20096;-80
2023/04/29 04:51:21;;;;;;;3.20;2.90;;;;;;;;;;5014724;28;20058;-80
2023/04/29 04:53:48;;;;;;;3.30;3.03;;;;;;;;;;5016126;28;20045;-80
2023/04/29 04:56:15;;;;;;;3.38;2.83;;;;;;;;;;4983293;28;20152;-80
2023/04/29 04:58:42;;;;;;;4.68;3.70;;;;;;;;;;5000550;28;20049;-79
2023/04/29 05:01:09;;;;;;;3.60;3.30;;;;;;;;;;4983051;28;20057;-80
2023/04/29 05:03:36;;;;;;;3.97;3.50;;;;;;;;;;5023471;28;20058;-80
2023/04/29 05:06:03;;;;;;;4.25;3.85;;;;;;;;;;5019819;28;20425;-80
2023/04/29 05:08:30;;;;;;;3.90;3.60;;;;;;;;;;4987377;28;20076;-80
2023/04/29 05:11:00;;;;;;;4.40;4.00;;;;;;;;;;4987532;28;20426;-79
2023/04/29 05:13:27;;;;;;;5.82;4.10;;;;;;;;;;5002828;28;20057;-80
2023/04/29 05:15:53;;;;;;;4.25;3.85;;;;;;;;;;5001708;28;20057;-80
2023/04/29 05:18:20;;;;;;;5.68;4.35;;;;;;;;;;5037029;28;20430;-80
2023/04/29 05:20:47;;;;;;;4.78;4.10;;;;;;;;;;5018150;28;20057;-80
2023/04/29 05:23:14;;;;;;;5.90;4.68;;;;;;;;;;5019146;28;20081;-80
2023/04/29 05:25:41;;;;;;;5.82;4.88;;;;;;;;;;5002520;28;20045;-81
2023/04/29 05:28:08;;;;;;;4.93;4.43;;;;;;;;;;5003426;28;20562;-80
2023/04/29 05:30:36;;;;;;;6.07;5.47;;;;;;;;;;5042373;28;20053;-81
2023/04/29 05:33:03;;;;;;;6.68;5.97;;;;;;;;;;5021861;28;20050;-82
2023/04/29 05:35:31;;;;;;;7.10;6.40;;;;;;;;;;5004931;28;20140;-82
2023/04/29 05:37:57;;;;;;;8.55;6.22;;;;;;;;;;4989348;28;20077;-81
2023/04/29 05:40:24;;;;;;;7.53;6.35;;;;;;;;;;5004056;28;20059;-81
2023/04/29 05:42:51;;;;;;;8.20;7.07;;;;;;;;;;4988261;28;20050;-81
2023/04/29 05:45:18;;;;;;;11.40;7.07;;;;;;;;;;5039469;28;20057;-82
2023/04/29 05:47:45;;;;;;;7.40;6.45;;;;;;;;;;5037611;28;20081;-81
2023/04/29 05:50:12;;;;;;;8.90;5.95;;;;;;;;;;5019698;28;20096;-82
2023/04/29 05:52:38;;;;;;;6.22;5.40;;;;;;;;;;5004691;28;20051;-82
2023/04/29 05:55:05;;;;;;;5.38;4.88;;;;;;;;;;5001996;28;20117;-80
2023/04/29 05:57:32;;;;;;;7.10;4.82;;;;;;;;;;5003083;28;20140;-80
2023/04/29 05:59:59;;;;;;;6.80;5.47;;;;;;;;;;4987753;28;20049;-78
2023/04/29 06:02:26;;;;;;;4.97;4.53;;;;;;;;;;5017327;28;20465;-76
2023/04/29 06:04:54;;;;;;;6.07;5.28;;;;;;;;;;5005208;28;20140;-80
2023/04/29 06:07:21;;;;;;;6.15;4.88;;;;;;;;;;5024033;28;20053;-81
2023/04/29 06:09:49;;;;;;;6.85;5.20;;;;;;;;;;4990649;28;20054;-82
2023/04/29 06:12:16;;;;;;;7.70;4.40;;;;;;;;;;5025134;28;20457;-80
2023/04/29 06:14:43;;;;;;;6.18;4.75;;;;;;;;;;5018768;28;20156;-78
2023/04/29 06:17:10;;;;;;;5.55;4.47;;;;;;;;;;5000273;28;20075;-77
2023/04/29 06:19:36;;;;;;;5.30;4.03;;;;;;;;;;4985947;28;20147;-77
2023/04/29 06:22:03;;;;;;;4.85;4.28;;;;;;;;;;4999607;28;20112;-78
2023/04/29 06:24:30;;;;;;;6.60;4.43;;;;;;;;;;5016542;28;20064;-78
2023/04/29 06:26:57;;;;;;;4.32;3.90;;;;;;;;;;4999050;28;20080;-78
2023/04/29 06:29:24;;;;;;;4.07;3.67;;;;;;;;;;5014310;28;20168;-76
2023/04/29 06:31:52;;;;;;;4.60;4.20;;;;;;;;;;5014505;28;20536;-77
2023/04/29 06:34:19;;;;;;;3.35;3.05;;;;;;;;;;5030965;28;20062;-77
2023/04/29 06:36:46;;;;;;;3.83;3.47;;;;;;;;;;4998667;28;20055;-78
2023/04/29 06:39:13;;;;;;;5.93;3.20;;;;;;;;;;4999289;28;20095;-79
2023/04/29 06:41:39;;;;;;;4.30;3.22;;;;;;;;;;5017175;28;20516;-79
2023/04/29 06:44:06;;;;;;;6.30;3.30;;;;;;;;;;4999864;28;20061;-77
2023/04/29 06:46:33;;;;;;;3.10;2.80;;;;;;;;;;4999900;28;20057;-82
2023/04/29 06:49:00;;;;;;;2.53;2.33;;;;;;;;;;4983937;28;20091;-80
2023/04/29 06:51:27;;;;;;;5.18;2.60;;;;;;;;;;5000733;28;20136;-80
2023/04/29 06:53:54;;;;;;;2.70;2.50;;;;;;;;;;4983977;28;20065;-81
2023/04/29 06:56:22;;;;;;;2.92;2.63;;;;;;;;;;4984405;28;20132;-79
2023/04/29 06:58:49;;;;;;;3.45;2.50;;;;;;;;;;5002497;28;20064;-79
2023/04/29 07:01:16;;;;;;;2.80;2.53;;;;;;;;;;5017657;28;20056;-79
2023/04/29 07:03:43;;;;;;;3.80;2.25;;;;;;;;;;5015143;28;20049;-77
2023/04/29 07:06:10;;;;;;;2.42;2.22;;;;;;;;;;5013594;28;20055;-78
2023/04/29 07:08:37;;;;;;;3.03;2.72;;;;;;;;;;5002767;28;20072;-77
2023/04/29 07:11:04;;;;;;;2.90;2.70;;;;;;;;;;4987702;28;20053;-76
2023/04/29 07:13:31;;;;;;;5.60;2.40;;;;;;;;;;4980533;28;20121;-81
2023/04/29 07:15:59;;;;;;;2.40;2.20;;;;;;;;;;4980485;28;20620;-80
2023/04/29 07:18:25;;;;;;;2.90;2.60;;;;;;;;;;4983561;28;20050;-78
2023/04/29 07:20:54;;;;;;;3.60;2.45;;;;;;;;;;4982941;28;20049;-79
2023/04/29 07:23:21;;;;;;;3.28;2.17;;;;;;;;;;5029197;28;20048;-80
2023/04/29 07:25:48;;;;;;;7.35;4.60;;;;;;;;;;4999906;28;20084;-81
2023/04/29 07:28:14;;;;;;;4.03;2.75;;;;;;;;;;5032966;28;20120;-79
2023/04/29 07:30:41;;;;;;;4.18;2.67;;;;;;;;;;4997669;28;20561;-79
2023/04/29 07:33:10;;;;;;;2.38;2.17;;;;;;;;;;5030299;28;20053;-88
2023/04/29 07:35:37;;;;;;;3.92;2.20;;;;;;;;;;4997027;28;20062;-77
2023/04/29 07:38:03;;;;;;;5.03;1.92;;;;;;;;;;5009294;28;20136;-79
2023/04/29 07:40:31;;;;;;;2.20;2.00;;;;;;;;;;5001535;28;20457;-78
2023/04/29 07:42:58;;;;;;;3.03;1.98;;;;;;;;;;5032990;28;20130;-75
2023/04/29 07:45:24;;;;;;;3.70;2.28;;;;;;;;;;5028964;28;20769;-74
2023/04/29 07:47:51;;;;;;;3.17;1.83;;;;;;;;;;5028133;28;20413;-76
2023/04/29 07:50:18;;;;;;;4.00;2.33;;;;;;;;;;5016462;28;20049;-77
2023/04/29 07:52:45;;;;;;;5.55;3.45;;;;;;;;;;4999860;28;20053;-81
2023/04/29 07:55:12;;;;;;;3.47;2.40;;;;;;;;;;4999269;28;20049;-80
2023/04/29 07:57:39;;;;;;;5.60;3.67;;;;;;;;;;4998391;28;20148;-80
2023/04/29 08:00:07;;;;;;;2.90;2.00;;;;;;;;;;5015822;28;20278;-80
2023/04/29 08:02:34;;;;;;;2.40;1.88;;;;;;;;;;5001157;28;20057;-80
2023/04/29 08:05:02;;;;;;;3.65;1.90;;;;;;;;;;4985588;28;20072;-81
2023/04/29 08:07:30;;;;;;;3.03;1.80;;;;;;;;;;5001073;28;20068;-80
2023/04/29 08:09:57;;;;;;;3.35;2.10;;;;;;;;;;5013348;28;20075;-79
2023/04/29 08:12:23;;;;;;;3.05;2.17;;;;;;;;;;5014091;28;20403;-80
2023/04/29 08:14:50;;;;;;;1.95;1.75;;;;;;;;;;4981394;28;20061;-79
2023/04/29 08:17:17;;;;;;;2.85;2.30;;;;;;;;;;5012632;28;20103;-79
2023/04/29 08:19:44;;;;;;;1.90;1.63;;;;;;;;;;4995989;28;20269;-79
2023/04/29 08:22:12;;;;;;;2.00;1.80;;;;;;;;;;5009249;28;20084;-79
2023/04/29 08:24:41;;;;;;;2.40;1.77;;;;;;;;;;5009220;28;20132;-79
2023/04/29 08:27:08;;;;;;;3.50;2.10;;;;;;;;;;5010019;28;20060;-79
2023/04/29 08:29:35;;;;;;;1.85;1.65;;;;;;;;;;5010372;28;20066;-79
2023/04/29 08:32:02;;;;;;;29.05;3.58;;;;;;;;;;4979856;28;20145;-79
2023/04/29 08:34:30;;;;;;;2.30;2.10;;;;;;;;;;4996138;28;20050;-79
2023/04/29 08:36:57;;;;;;;2.35;2.15;;;;;;;;;;4981260;28;20056;-79
2023/04/29 08:39:24;;;;;;;1.73;1.60;;;;;;;;;;5033018;28;20553;-79
2023/04/29 08:41:52;;;;;;;3.25;2.15;;;;;;;;;;5000773;28;20107;-79
2023/04/29 08:44:20;;;;;;;2.00;1.80;;;;;;;;;;4987162;28;20449;-80
2023/04/29 08:46:47;;;;;;;4.47;2.08;;;;;;;;;;5000523;28;20720;-80
2023/04/29 08:49:14;;;;;;;3.47;1.85;;;;;;;;;;5013296;28;20081;-79
2023/04/29 08:51:40;;;;;;;2.17;1.85;;;;;;;;;;4997888;28;20499;-80
2023/04/29 08:54:07;;;;;;;2.15;1.95;;;;;;;;;;4996862;28;20560;-80
2023/04/29 08:56:34;;;;;;;2.10;1.90;;;;;;;;;;5008404;28;20055;-79
2023/04/29 08:59:01;;;;;;;1.67;1.58;;;;;;;;;;5020109;28;20417;-79
2023/04/29 09:01:28;;;;;;;2.30;2.10;;;;;;;;;;5013382;28;20421;-78
2023/04/29 09:04:04;;;;;;;2.20;1.98;;;;;;;;;;4998055;28;20045;-79
2023/04/29 09:06:32;;;;;;;2.45;1.85;;;;;;;;;;5047243;28;20113;-79
2023/04/29 09:08:59;;;;;;;2.40;2.20;;;;;;;;;;4982891;28;20298;-77
2023/04/29 09:11:26;;;;;;;1.75;1.65;;;;;;;;;;4985260;28;20422;-79
2023/04/29 09:14:01;;;;;;;3.15;2.00;;;;;;;;;;4990858;28;20079;-79
2023/04/29 09:16:28;;;;;;;3.45;2.28;;;;;;;;;;4989154;28;20494;-79
2023/04/29 09:18:55;;;;;;;2.17;1.98;;;;;;;;;;4992140;28;20059;-79
2023/04/29 09:21:26;;;;;;;1.90;1.70;;;;;;;;;;4994361;28;20107;-79
2023/04/29 09:23:58;;;;;;;3.15;2.50;;;;;;;;;;5006459;28;20052;-79
2023/04/29 09:26:25;;;;;;;2.30;1.75;;;;;;;;;;5005956;28;20055;-79
2023/04/29 09:29:12;;;;;;;3.22;2.13;;;;;;;;;;5007101;28;20075;-80
2023/04/29 09:31:40;;;;;;;2.03;1.70;;;;;;;;;;5009323;28;20406;-79
2023/04/29 09:34:07;;;;;;;2.45;2.10;;;;;;;;;;5009097;28;20049;-80
2023/04/29 09:36:41;;;;;;;5.78;2.17;;;;;;;;;;5000122;28;20091;-79
2023/04/29 09:39:12;;;;;;;2.50;2.22;;;;;;;;;;5026929;28;20052;-80
2023/04/29 09:42:01;;;;;;;2.40;2.20;;;;;;;;;;4995125;28;20136;-79
2023/04/29 09:44:30;;;;;;;1.98;1.88;;;;;;;;;;5004629;28;20049;-80
2023/04/29 09:47:04;;;;;;;2.17;1.98;;;;;;;;;;4995657;28;20420;-80
2023/04/29 09:49:37;;;;;;;2.40;2.20;;;;;;;;;;4993026;28;20184;-80
2023/04/29 09:52:05;;;;;;;;;;;;;;;;;;4991521;28;20057;-79
2023/04/29 09:54:35;;;;;;;3.22;2.03;;;;;;;;;;5059134;28;19963;-80
2023/04/29 09:57:05;;;;;;;2.30;2.10;;;;;;;;;;4990544;28;20057;-80
2023/04/29 09:59:34;;;;;;;2.30;2.10;;;;;;;;;;4993647;28;20102;-80
2023/04/29 10:02:14;;;;;;;2.75;2.55;;;;;;;;;;5009072;28;20077;-80
2023/04/29 10:04:41;;;;;;;3.97;2.65;;;;;;;;;;5015495;28;20045;-81
2023/04/29 10:07:08;;;;;;;2.40;2.20;;;;;;;;;;5010569;28;20057;-80
2023/04/29 10:09:35;;;;;;;2.13;1.92;;;;;;;;;;5004978;28;20066;-80
2023/04/29 10:12:02;;;;;;;3.05;2.33;;;;;;;;;;5012203;28;20053;-79
2023/04/29 10:14:29;;;;;;;2.35;2.00;;;;;;;;;;4997604;28;20502;-79
2023/04/29 10:17:04;;;;;;;2.22;1.65;;;;;;;;;;4990469;28;20085;-80
2023/04/29 10:19:50;;;;;;;1.83;1.67;;;;;;;;;;5002731;28;20132;-80
2023/04/29 10:22:32;;;;;;;3.30;1.75;;;;;;;;;;5021734;28;20057;-79
2023/04/29 10:25:00;;;;;;;2.58;1.50;;;;;;;;;;5013068;28;20143;-77
2023/04/29 10:27:28;;;;;;;2.65;1.73;;;;;;;;;;5028706;28;20516;-79
2023/04/29 10:29:55;;;;;;;1.85;1.70;;;;;;;;;;5021148;28;20046;-79
2023/04/29 10:32:22;;;;;;;1.80;1.70;;;;;;;;;;5010390;28;20510;-79
2023/04/29 10:34:50;;;;;;;2.63;1.80;;;;;;;;;;5007798;28;20077;-77
2023/04/29 10:37:17;;;;;;;3.72;1.80;;;;;;;;;;4997859;28;20469;-80
2023/04/29 10:39:53;;;;;;;2.58;1.52;;;;;;;;;;5024763;28;20104;-79
2023/04/29 10:42:26;;;;;;;3.58;1.63;;;;;;;;;;5029510;28;20084;-79
2023/04/29 10:45:30;;;;;;;2.38;1.75;;;;;;;;;;5027351;28;20049;-79
2023/04/29 10:48:09;;;;;;;2.03;1.83;;;;;;;;;;5043434;28;20413;-79
2023/04/29 10:50:48;;;;;;;2.20;2.00;;;;;;;;;;5026642;28;20051;-79
2023/04/29 10:53:20;;;;;;;2.75;1.95;;;;;;;;;;5022405;28;20140;-77
2023/04/29 10:56:05;;;;;;;2.97;1.85;;;;;;;;;;5002550;28;20038;-80
2023/04/29 10:58:42;;;;;;;2.75;2.40;;;;;;;;;;4995822;28;20051;-80
2023/04/29 11:01:13;;;;;;;2.28;2.08;;;;;;;;;;5037301;28;21001;-80
2023/04/29 11:03:57;;;;;;;2.70;2.03;;;;;;;;;;4988091;28;20107;-80
2023/04/29 11:06:46;;;;;;;1.60;1.50;;;;;;;;;;4992623;28;20130;-80
2023/04/29 11:09:15;;;;;;;1.95;1.75;;;;;;;;;;5006125;28;20587;-80
2023/04/29 11:12:02;;;;;;;3.50;1.50;;;;;;;;;;4994101;28;20062;-81
2023/04/29 11:14:33;;;;;;;1.80;1.67;;;;;;;;;;5011550;28;20134;-77
2023/04/29 11:17:01;;;;;;;3.63;1.77;;;;;;;;;;5007452;28;20095;-79
2023/04/29 11:19:34;;;;;;;2.50;2.30;;;;;;;;;;4987329;28;20475;-80
2023/04/29 11:22:08;;;;;;;;;;;;;;;;;;5034020;28;20099;-84
2023/04/29 11:24:35;;;;;;;4.55;2.60;;;;;;;;;;5032459;28;20389;-78
2023/04/29 11:27:05;;;;;;;3.97;2.20;;;;;;;;;;5012063;28;20113;-80
2023/04/29 11:29:32;;;;;;;6.45;2.53;;;;;;;;;;5027611;28;20076;-79
2023/04/29 11:32:02;;;;;;;3.60;3.10;;;;;;;;;;4989298;28;20053;-79
2023/04/29 11:34:29;;;;;;;4.32;3.00;;;;;;;;;;5005367;28;20096;-79
2023/04/29 11:36:56;;;;;;;4.13;3.72;;;;;;;;;;5050401;28;20052;-79
2023/04/29 11:39:23;;;;;;;5.57;4.18;;;;;;;;;;5020263;28;20056;-78
2023/04/29 11:41:51;;;;;;;4.32;3.92;;;;;;;;;;5007425;28;20536;-79
2023/04/29 11:44:21;;;;;;;5.13;4.22;;;;;;;;;;5022432;28;20654;-80
2023/04/29 11:46:48;;;;;;;5.25;4.38;;;;;;;;;;5018148;28;20049;-80
2023/04/29 11:49:15;;;;;;;4.45;4.05;;;;;;;;;;5021567;28;20064;-78
2023/04/29 11:51:42;;;;;;;4.47;3.90;;;;;;;;;;5024102;28;20059;-79
2023/04/29 11:54:08;;;;;;;6.55;3.63;;;;;;;;;;5005228;28;20077;-78
2023/04/29 11:56:37;;;;;;;4.03;3.25;;;;;;;;;;5003625;28;20048;-79
2023/04/29 11:59:06;;;;;;;4.60;3.33;;;;;;;;;;4978977;28;20057;-79
2023/04/29 12:01:34;;;;;;;4.95;3.92;;;;;;;;;;5007067;28;20420;-79
2023/04/29 12:04:01;;;;;;;4.40;4.00;;;;;;;;;;5003919;28;20056;-79
2023/04/29 12:06:30;;;;;;;6.28;3.80;;;;;;;;;;5021469;28;20060;-79
2023/04/29 12:09:00;;;;;;;3.58;3.28;;;;;;;;;;5020922;28;20136;-79
2023/04/29 12:11:27;;;;;;;4.22;3.35;;;;;;;;;;5005145;28;20464;-79
2023/04/29 12:13:55;;;;;;;4.38;3.38;;;;;;;;;;5023667;28;20057;-80
2023/04/29 12:16:22;;;;;;;6.88;3.70;;;;;;;;;;4985653;28;20132;-79
2023/04/29 12:18:52;;;;;;;3.65;3.08;;;;;;;;;;5008741;28;20080;-79
2023/04/29 12:21:21;;;;;;;6.32;3.83;;;;;;;;;;5034267;28;20080;-80
2023/04/29 12:23:47;;;;;;;4.25;3.30;;;;;;;;;;5036528;28;20491;-81
2023/04/29 12:26:14;;;;;;;4.38;3.10;;;;;;;;;;5005049;28;20103;-80
2023/04/29 12:28:41;;;;;;;4.20;2.83;;;;;;;;;;4987709;28;20048;-77
2023/04/29 12:31:11;;;;;;;3.35;3.05;;;;;;;;;;5005139;28;20135;-79
2023/04/29 12:33:41;;;;;;;2.85;2.55;;;;;;;;;;5018186;28;20104;-81
2023/04/29 12:36:17;;;;;;;4.60;2.58;;;;;;;;;;5008555;28;20472;-84
2023/04/29 12:38:44;;;;;;;3.67;2.70;;;;;;;;;;4987187;28;20057;-78
2023/04/29 12:41:13;;;;;;;3.03;2.40;;;;;;;;;;4989309;28;20124;-79
2023/04/29 12:43:41;;;;;;;3.20;2.90;;;;;;;;;;5006628;28;20379;-80
2023/04/29 12:46:09;;;;;;;3.00;2.75;;;;;;;;;;5023055;28;20088;-80
2023/04/29 12:48:42;;;;;;;3.85;2.97;;;;;;;;;;5023755;28;20045;-80
2023/04/29 12:51:10;;;;;;;3.40;2.78;;;;;;;;;;5021527;28;20061;-80
2023/04/29 12:53:37;;;;;;;3.40;2.90;;;;;;;;;;4987461;28;20088;-80
2023/04/29 12:56:05;;;;;;;3.22;2.92;;;;;;;;;;4991730;28;20060;-80
2023/04/29 12:58:33;;;;;;;4.15;3.75;;;;;;;;;;5005726;28;20045;-80
2023/04/29 13:01:00;;;;;;;3.55;3.08;;;;;;;;;;4995116;28;20057;-80
2023/04/29 13:03:27;;;;;;;3.10;2.60;;;;;;;;;;5003376;28;20462;-80
2023/04/29 13:05:54;;;;;;;3.42;3.13;;;;;;;;;;5004629;28;20064;-80
2023/04/29 13:08:21;;;;;;;3.42;3.13;;;;;;;;;;5002074;28;20136;-81
2023/04/29 13:10:49;;;;;;;5.30;3.20;;;;;;;;;;5004328;28;20497;-80
2023/04/29 13:13:15;;;;;;;3.75;3.45;;;;;;;;;;4979844;28;20418;-80
2023/04/29 13:15:42;;;;;;;5.93;4.05;;;;;;;;;;4967184;28;20070;-81
2023/04/29 13:18:09;;;;;;;6.60;3.78;;;;;;;;;;4966258;28;20376;-81
2023/04/29 13:20:36;;;;;;;4.78;3.50;;;;;;;;;;4947393;28;20054;-80
2023/04/29 13:23:08;;;;;;;6.13;4.20;;;;;;;;;;4939983;28;20055;-79
2023/04/29 13:25:35;;;;;;;4.32;3.63;;;;;;;;;;4953939;28;20055;-81
2023/04/29 13:28:04;;;;;;;4.95;4.35;;;;;;;;;;4951695;28;20046;-80
2023/04/29 13:30:31;;;;;;;4.80;4.30;;;;;;;;;;4984321;28;20402;-80
2023/04/29 13:32:59;;;;;;;5.05;4.32;;;;;;;;;;4981209;28;20066;-79
2023/04/29 13:35:38;;;;;;;4.93;4.40;;;;;;;;;;4953271;28;20180;-82
2023/04/29 13:38:06;;;;;;;6.35;5.35;;;;;;;;;;4949243;28;20054;-80
2023/04/29 13:40:33;;;;;;;7.78;4.95;;;;;;;;;;4963584;28;20127;-80
2023/04/29 13:43:07;;;;;;;5.75;4.63;;;;;;;;;;4986486;28;20050;-80
2023/04/29 13:45:35;;;;;;;5.75;5.13;;;;;;;;;;4981243;28;20049;-78
2023/04/29 13:48:08;;;;;;;7.13;5.78;;;;;;;;;;4964581;28;20077;-78
2023/04/29 13:50:55;;;;;;;6.25;5.28;;;;;;;;;;4960115;28;20046;-78
2023/04/29 13:53:25;;;;;;;8.18;5.30;;;;;;;;;;4965366;28;20058;-77
2023/04/29 13:56:11;;;;;;;7.25;5.32;;;;;;;;;;4965276;28;20923;-79
2023/04/29 13:58:41;;;;;;;7.72;5.47;;;;;;;;;;4982133;28;20058;-79
2023/04/29 14:01:29;;;;;;;6.70;6.00;;;;;;;;;;4971528;28;20050;-78
2023/04/29 14:03:58;;;;;;;6.95;5.55;;;;;;;;;;4973740;28;20058;-79
2023/04/29 14:06:27;;;;;;;6.57;5.32;;;;;;;;;;4940369;28;20051;-80
2023/04/29 14:08:54;;;;;;;5.72;5.22;;;;;;;;;;4948205;28;20077;-79
2023/04/29 14:11:20;;;;;;;5.53;4.57;;;;;;;;;;4961388;28;20055;-77
2023/04/29 14:13:47;;;;;;;6.63;5.38;;;;;;;;;;4979947;28;20499;-78
2023/04/29 14:16:14;;;;;;;6.88;4.75;;;;;;;;;;4977213;28;20046;-78
2023/04/29 14:18:41;;;;;;;6.22;4.80;;;;;;;;;;4948494;28;20089;-77
2023/04/29 14:21:09;;;;;;;5.30;4.70;;;;;;;;;;4977750;28;20507;-77
2023/04/29 14:23:36;;;;;;;5.32;4.72;;;;;;;;;;4965184;28;20050;-77
2023/04/29 14:26:03;;;;;;;6.93;5.40;;;;;;;;;;4961950;28;20054;-77
2023/04/29 14:28:56;;;;;;;5.90;5.40;;;;;;;;;;4962176;28;20054;-77
2023/04/29 14:31:24;;;;;;;6.72;5.03;;;;;;;;;;4963512;28;20050;-78
2023/04/29 14:33:51;;;;;;;5.70;4.55;;;;;;;;;;4981751;28;20093;-77
2023/04/29 14:36:18;;;;;;;5.40;4.85;;;;;;;;;;4948322;28;20054;-77
2023/04/29 14:38:45;;;;;;;6.75;5.03;;;;;;;;;;4980736;28;20061;-78
2023/04/29 14:41:11;;;;;;;5.97;5.25;;;;;;;;;;4946088;28;20169;-77
2023/04/29 14:43:38;;;;;;;5.13;4.63;;;;;;;;;;4978404;28;20507;-77
2023/04/29 14:46:05;;;;;;;6.43;5.38;;;;;;;;;;4963871;28;20061;-77
2023/04/29 14:48:32;;;;;;;6.05;4.57;;;;;;;;;;4969683;28;20506;-77
2023/04/29 14:50:59;;;;;;;7.68;5.07;;;;;;;;;;4961523;28;20113;-80
2023/04/29 14:53:25;;;;;;;5.80;5.15;;;;;;;;;;4972400;28;20052;-77